This demonstration page uses our WeatherBlox Daily Observations layout. Learn more.

41.55636, -103.73856

Hourly Observations for March 17, 2019

Temp ( °F °C ) Dew Point ( °F °C ) Humidity (%) Winds ( mph kmh ) Pressure ( in mb ) Visibility ( mi km ) Precip ( " mm )
12:58 am 00:58 Clear 33 0.4 22 -5.5 65 65 ESE 3 6 30.44 1031 10 16.0934 0 0
1:58 am 01:58 Clear 31 -0.7 21 -6.1 67 67 SSE 3 6 30.45 1031 10 16.0934 0 0
2:58 am 02:58 Clear 29 -1.8 19 -7 68 68 SSW 9 15 30.45 1031 10 16.0934 0 0
3:58 am 03:58 Clear 28 -2 18 -7.6 66 66 SSW 10 17 30.44 1031 10 16.0934 0 0
4:58 am 04:58 Clear 29 -1.8 18 -7.9 63 63 SW 12 19 30.4 1030 10 16.0934 0 0
5:58 am 05:58 Clear 28 -2 17 -8.1 63 63 SW 13 20 30.4 1029 10 16.0934 0 0
7:58 am 07:58 Clear 27 -2.8 17 -8.2 67 67 SW 12 19 30.36 1028 10 16.0934 0 0
9:58 am 09:58 Clear 27 -2.8 20 -6.9 74 74 WSW 10 17 30.32 1027 10 16.0934 0 0
10:58 am 10:58 Clear 29 -1.9 19 -7.5 66 66 W 8 13 30.32 1027 10 16.0934 0 0
11:58 am 11:58 Clear 26 -3.2 19 -7.1 75 75 W 13 20 30.33 1027 10 16.0934 0 0
1:58 pm 13:58 Sunny 28 -2 18 -7.8 65 65 WNW 17 28 30.35 1028 10 16.0934 0 0
2:58 pm 14:58 Sunny 31 -0.6 19 -7.1 62 62 WNW 16 26 30.37 1029 10 16.0934 0 0
3:58 pm 15:58 Sunny 32 0.2 21 -6.1 63 63 NW 13 20 30.4 1029 10 16.0934 0 0
4:58 pm 16:58 Sunny 35 1.7 22 -5.4 60 60 NW 15 24 30.4 1029 10 16.0934 0 0
5:58 pm 17:58 Sunny 37 2.7 22 -5.7 54 54 NNW 14 22 30.38 1029 10 16.0934 0 0
6:58 pm 18:58 Sunny 38 3.1 22 -5.5 54 54 NNW 15 24 30.41 1030 10 16.0934 0 0
7:58 pm 19:58 Sunny 38 3.2 24 -4.4 58 58 N 10 17 30.4 1029 10 16.0934 0 0
8:58 pm 20:58 Sunny 38 3.6 25 -4 58 58 NNW 10 17 30.37 1029 10 16.0934 0 0
9:58 pm 21:58 Sunny 39 4 26 -3.5 58 58 N 7 11 30.37 1029 10 16.0934 0 0
10:58 pm 22:58 Sunny 39 3.9 26 -3.3 60 60 N 10 17 30.37 1029 10 16.0934 0 0
11:58 pm 23:58 Sunny 40 4.4 26 -3.3 58 58 Calm 30.4 1029 10 16.0934 0 0

Powered by AerisWeather